KTRMKBLH

Guest
Details From KTRM - Jacqueline Cochran Rgnl
To KBLH - Blythe
Flight Number -
Tags Decoded
Created
Modified
Stats Distance 70 nm / 130 km
Max Altitude 0 ft / 0 m
Waypoints 2
Social Downloads 0
Likes 0
Share VATSIM

Download

Looking for another format? Having issues loading an existing format? Contact us
Advertisement - Login to hide

Notes

Decoded

Route

TRM BLH

ID Type Via Altitude Latitude Longitude Leg Dist Tot Dist Heading (true) Name
O TRM VOR - 0 ft / 0 m 33.62808˚ -116.16019˚ - 0 nm - THERMAL VORTAC
O BLH VOR - 0 ft / 0 m 33.59606˚ -114.76119˚ 69 nm 69 nm 91° / 92° BLYTHE VORTAC

Altitude Profile

Advertisement - Login to hide

KTRM

Details ICAO KTRM (TRM)
Name Jacqueline Cochran Rgnl
Region United States
Timezone America/Los_Angeles (UTC-8.0)
Stats Elevation -115 ft / -35 m (AMSL)
Location 33.626391° -116.160792°
Runways 2
Magnetic Variation 11.463° E

METAR

KTRM 150752Z AUTO 34006KT 10SM CLR 19/M08 A3012 RMK AO2 SLP201 T01891083 402830022

Decode

TAF

KTRM 150520Z 1506/1606 VRB06KT P6SM SKC FM151900 12006KT P6SM SKC

Decode

Departure Runways

ID Width Length Bearing (true) Bearing (mag) Surface Threshold Offset Overrun Length
12 98 ft / 30 m 4,997 ft / 1,523 m 135.14° 123.68° Asphalt 0 ft / 0 m 0 ft / 0 m
17 151 ft / 46 m 8,525 ft / 2,598 m 180.02° 168.56° Asphalt 0 ft / 0 m 200 ft / 61 m
30 98 ft / 30 m 4,997 ft / 1,523 m 315.15° 303.69° Asphalt 0 ft / 0 m 0 ft / 0 m
35 151 ft / 46 m 8,525 ft / 2,598 m 0.02° 348.56° Asphalt 0 ft / 0 m 200 ft / 61 m

KBLH

Details ICAO KBLH (BLH)
Name BLYTHE
Region United States
Timezone America/Los_Angeles (UTC-8.0)
Stats Elevation 399 ft / 122 m (AMSL)
Location 33.619318° -114.716882°
Runways 2
Magnetic Variation 11.108° E

METAR

KBLH 150752Z AUTO 33011KT 10SM CLR 16/M08 A3015 RMK AO2 SLP206 T01611083 402440033

Decode

TAF

TAF KBLH 150520Z 1506/1606 36014KT P6SM SKC FM150900 34007KT P6SM SKC FM151500 VRB04KT P6SM SKC

Decode

Destination Runways

ID Width Length Bearing (true) Bearing (mag) Surface Threshold Offset Overrun Length
08 150 ft / 46 m 6,531 ft / 1,991 m 90.21° 79.10° Asphalt 0 ft / 0 m 769 ft / 234 m
17 100 ft / 30 m 5,816 ft / 1,773 m 180.22° 169.11° Asphalt 0 ft / 0 m 212 ft / 65 m
26 150 ft / 46 m 6,531 ft / 1,991 m 270.22° 259.11° Asphalt 0 ft / 0 m 424 ft / 129 m
35 100 ft / 30 m 5,816 ft / 1,773 m 0.22° 349.11° Asphalt 0 ft / 0 m 200 ft / 61 m